sensor_id;sensor_type;location;lat;lon;timestamp;pressure;altitude;pressure_sealevel;temperature;humidity
37878;BME280;23715;53.652;8.516;2022-08-26T00:02:35;101501.70;;;26.28;100.00
37878;BME280;23715;53.652;8.516;2022-08-26T00:07:36;101500.94;;;26.30;100.00
37878;BME280;23715;53.652;8.516;2022-08-26T00:12:37;101500.94;;;26.30;100.00
37878;BME280;23715;53.652;8.516;2022-08-26T00:17:37;101506.85;;;26.18;100.00
37878;BME280;23715;53.652;8.516;2022-08-26T00:22:38;101509.69;;;26.21;100.00
37878;BME280;23715;53.652;8.516;2022-08-26T00:27:38;101515.28;;;26.01;100.00
37878;BME280;23715;53.652;8.516;2022-08-26T00:32:39;101505.63;;;26.07;100.00
37878;BME280;23715;53.652;8.516;2022-08-26T00:37:41;101502.78;;;26.05;100.00
37878;BME280;23715;53.652;8.516;2022-08-26T00:42:42;101500.53;;;26.04;100.00
37878;BME280;23715;53.652;8.516;2022-08-26T00:47:48;101494.20;;;26.20;100.00
37878;BME280;23715;53.652;8.516;2022-08-26T00:52:49;101490.20;;;26.16;100.00
37878;BME280;23715;53.652;8.516;2022-08-26T00:57:51;101485.98;;;26.13;100.00
37878;BME280;23715;53.652;8.516;2022-08-26T01:02:53;101485.44;;;26.14;100.00
37878;BME280;23715;53.652;8.516;2022-08-26T01:07:54;101491.92;;;26.10;100.00
37878;BME280;23715;53.652;8.516;2022-08-26T01:12:56;101483.19;;;25.90;100.00
37878;BME280;23715;53.652;8.516;2022-08-26T01:17:56;101486.11;;;26.09;100.00
37878;BME280;23715;53.652;8.516;2022-08-26T01:23:00;101486.34;;;26.01;100.00
37878;BME280;23715;53.652;8.516;2022-08-26T01:28:03;101488.59;;;25.59;100.00
37878;BME280;23715;53.652;8.516;2022-08-26T01:33:06;101484.41;;;25.79;100.00
37878;BME280;23715;53.652;8.516;2022-08-26T01:38:08;101484.16;;;25.87;100.00
37878;BME280;23715;53.652;8.516;2022-08-26T01:43:13;101477.45;;;25.99;100.00
37878;BME280;23715;53.652;8.516;2022-08-26T01:48:15;101478.06;;;26.07;100.00
37878;BME280;23715;53.652;8.516;2022-08-26T01:53:18;101479.48;;;25.87;100.00
37878;BME280;23715;53.652;8.516;2022-08-26T01:58:40;101486.12;;;25.66;100.00
37878;BME280;23715;53.652;8.516;2022-08-26T02:09:00;101487.71;;;25.71;100.00
37878;BME280;23715;53.652;8.516;2022-08-26T02:14:15;101490.63;;;25.47;100.00
37878;BME280;23715;53.652;8.516;2022-08-26T02:19:19;101488.50;;;25.49;100.00
37878;BME280;23715;53.652;8.516;2022-08-26T02:24:22;101495.09;;;25.42;100.00
37878;BME280;23715;53.652;8.516;2022-08-26T02:29:28;101485.99;;;25.41;100.00
37878;BME280;23715;53.652;8.516;2022-08-26T02:34:31;101489.38;;;25.43;100.00
37878;BME280;23715;53.652;8.516;2022-08-26T02:39:34;101486.92;;;25.51;100.00
37878;BME280;23715;53.652;8.516;2022-08-26T02:44:35;101478.33;;;25.57;100.00
37878;BME280;23715;53.652;8.516;2022-08-26T02:49:36;101476.32;;;25.55;100.00
37878;BME280;23715;53.652;8.516;2022-08-26T02:54:36;101483.33;;;25.50;100.00
37878;BME280;23715;53.652;8.516;2022-08-26T02:59:37;101476.59;;;25.33;100.00
37878;BME280;23715;53.652;8.516;2022-08-26T03:04:40;101467.50;;;25.26;100.00
37878;BME280;23715;53.652;8.516;2022-08-26T03:09:41;101467.16;;;25.25;100.00
37878;BME280;23715;53.652;8.516;2022-08-26T03:14:41;101462.29;;;25.27;100.00
37878;BME280;23715;53.652;8.516;2022-08-26T03:19:42;101463.13;;;25.21;100.00
37878;BME280;23715;53.652;8.516;2022-08-26T03:24:41;101460.72;;;25.08;100.00
37878;BME280;23715;53.652;8.516;2022-08-26T03:29:42;101460.50;;;25.03;100.00
37878;BME280;23715;53.652;8.516;2022-08-26T03:35:00;101463.47;;;25.08;100.00
37878;BME280;23715;53.652;8.516;2022-08-26T03:40:00;101463.04;;;24.98;100.00
37878;BME280;23715;53.652;8.516;2022-08-26T03:45:00;101456.79;;;25.00;100.00
37878;BME280;23715;53.652;8.516;2022-08-26T03:50:00;101458.59;;;25.04;100.00
37878;BME280;23715;53.652;8.516;2022-08-26T03:55:01;101446.02;;;24.92;100.00
37878;BME280;23715;53.652;8.516;2022-08-26T04:00:04;101447.81;;;24.82;100.00
37878;BME280;23715;53.652;8.516;2022-08-26T04:05:07;101453.64;;;24.77;100.00
37878;BME280;23715;53.652;8.516;2022-08-26T04:10:09;101441.34;;;24.52;100.00
37878;BME280;23715;53.652;8.516;2022-08-26T04:15:12;101446.82;;;24.46;100.00
37878;BME280;23715;53.652;8.516;2022-08-26T04:20:13;101446.70;;;24.36;100.00
37878;BME280;23715;53.652;8.516;2022-08-26T04:25:15;101455.66;;;24.59;100.00
37878;BME280;23715;53.652;8.516;2022-08-26T04:30:16;101454.94;;;24.36;100.00
37878;BME280;23715;53.652;8.516;2022-08-26T04:35:18;101454.52;;;24.33;100.00
37878;BME280;23715;53.652;8.516;2022-08-26T04:40:18;101456.11;;;24.45;100.00
37878;BME280;23715;53.652;8.516;2022-08-26T04:45:18;101458.96;;;24.41;100.00
37878;BME280;23715;53.652;8.516;2022-08-26T04:50:18;101455.27;;;24.51;100.00
37878;BME280;23715;53.652;8.516;2022-08-26T04:55:20;101460.42;;;24.74;100.00
37878;BME280;23715;53.652;8.516;2022-08-26T05:00:21;101449.30;;;24.91;100.00
37878;BME280;23715;53.652;8.516;2022-08-26T05:05:21;101452.26;;;24.63;100.00
37878;BME280;23715;53.652;8.516;2022-08-26T05:10:21;101464.12;;;24.84;100.00
37878;BME280;23715;53.652;8.516;2022-08-26T05:15:22;101463.48;;;24.82;100.00
37878;BME280;23715;53.652;8.516;2022-08-26T05:20:22;101462.62;;;24.74;100.00
37878;BME280;23715;53.652;8.516;2022-08-26T05:25:21;101467.59;;;25.02;100.00
37878;BME280;23715;53.652;8.516;2022-08-26T05:30:22;101461.47;;;24.93;100.00
37878;BME280;23715;53.652;8.516;2022-08-26T05:35:25;101462.09;;;24.75;100.00
37878;BME280;23715;53.652;8.516;2022-08-26T05:40:27;101461.89;;;24.77;100.00
37878;BME280;23715;53.652;8.516;2022-08-26T05:45:27;101459.88;;;24.74;100.00
37878;BME280;23715;53.652;8.516;2022-08-26T05:50:29;101455.66;;;24.99;100.00
37878;BME280;23715;53.652;8.516;2022-08-26T05:55:30;101466.64;;;25.12;100.00
37878;BME280;23715;53.652;8.516;2022-08-26T06:00:31;101462.83;;;25.26;100.00
37878;BME280;23715;53.652;8.516;2022-08-26T06:05:32;101464.26;;;25.56;100.00
37878;BME280;23715;53.652;8.516;2022-08-26T06:10:34;101461.91;;;25.82;100.00
37878;BME280;23715;53.652;8.516;2022-08-26T06:15:41;101454.50;;;26.12;100.00
37878;BME280;23715;53.652;8.516;2022-08-26T06:20:43;101457.68;;;26.47;100.00
37878;BME280;23715;53.652;8.516;2022-08-26T06:25:44;101461.39;;;26.66;100.00
37878;BME280;23715;53.652;8.516;2022-08-26T06:30:44;101454.42;;;26.73;100.00
37878;BME280;23715;53.652;8.516;2022-08-26T06:35:45;101456.02;;;26.87;100.00
37878;BME280;23715;53.652;8.516;2022-08-26T06:40:48;101456.46;;;27.09;100.00
37878;BME280;23715;53.652;8.516;2022-08-26T06:45:50;101460.83;;;27.07;100.00
37878;BME280;23715;53.652;8.516;2022-08-26T06:51:39;101463.26;;;27.41;100.00
37878;BME280;23715;53.652;8.516;2022-08-26T06:55:55;101462.27;;;27.54;100.00
37878;BME280;23715;53.652;8.516;2022-08-26T07:00:55;101458.42;;;27.73;100.00
37878;BME280;23715;53.652;8.516;2022-08-26T07:06:00;101463.27;;;27.78;100.00
37878;BME280;23715;53.652;8.516;2022-08-26T07:11:06;101472.07;;;27.87;100.00
37878;BME280;23715;53.652;8.516;2022-08-26T07:16:10;101465.37;;;28.22;100.00
37878;BME280;23715;53.652;8.516;2022-08-26T07:21:12;101462.20;;;28.28;100.00
37878;BME280;23715;53.652;8.516;2022-08-26T07:26:16;101458.17;;;28.42;100.00
37878;BME280;23715;53.652;8.516;2022-08-26T07:31:17;101468.67;;;28.73;100.00
37878;BME280;23715;53.652;8.516;2022-08-26T07:36:20;101468.81;;;28.78;100.00
37878;BME280;23715;53.652;8.516;2022-08-26T07:41:23;101467.66;;;29.00;100.00
37878;BME280;23715;53.652;8.516;2022-08-26T07:46:23;101474.28;;;29.20;100.00
37878;BME280;23715;53.652;8.516;2022-08-26T07:51:25;101477.68;;;29.36;100.00
37878;BME280;23715;53.652;8.516;2022-08-26T07:56:26;101478.09;;;29.54;100.00
37878;BME280;23715;53.652;8.516;2022-08-26T08:01:26;101482.70;;;29.63;100.00
37878;BME280;23715;53.652;8.516;2022-08-26T08:06:28;101490.02;;;29.93;100.00
37878;BME280;23715;53.652;8.516;2022-08-26T08:11:29;101485.81;;;30.05;100.00
37878;BME280;23715;53.652;8.516;2022-08-26T08:16:30;101484.43;;;30.05;100.00
37878;BME280;23715;53.652;8.516;2022-08-26T08:21:30;101491.80;;;30.28;100.00
37878;BME280;23715;53.652;8.516;2022-08-26T08:26:30;101489.64;;;30.15;100.00
37878;BME280;23715;53.652;8.516;2022-08-26T08:31:31;101494.54;;;30.25;100.00
37878;BME280;23715;53.652;8.516;2022-08-26T08:36:33;101486.98;;;30.49;100.00
37878;BME280;23715;53.652;8.516;2022-08-26T08:46:44;101495.20;;;30.44;100.00
37878;BME280;23715;53.652;8.516;2022-08-26T08:52:08;101501.70;;;29.81;100.00
37878;BME280;23715;53.652;8.516;2022-08-26T08:58:01;101497.11;;;29.86;100.00
37878;BME280;23715;53.652;8.516;2022-08-26T09:02:26;101487.35;;;30.12;100.00
37878;BME280;23715;53.652;8.516;2022-08-26T09:07:32;101488.59;;;29.52;100.00
37878;BME280;23715;53.652;8.516;2022-08-26T09:12:34;101483.33;;;29.77;100.00
37878;BME280;23715;53.652;8.516;2022-08-26T09:18:01;101476.97;;;30.05;100.00
37878;BME280;23715;53.652;8.516;2022-08-26T09:22:58;101481.23;;;29.34;100.00
37878;BME280;23715;53.652;8.516;2022-08-26T09:27:58;101477.45;;;30.02;100.00
37878;BME280;23715;53.652;8.516;2022-08-26T09:33:04;101473.70;;;30.23;100.00
37878;BME280;23715;53.652;8.516;2022-08-26T09:38:23;101463.39;;;30.49;100.00
37878;BME280;23715;53.652;8.516;2022-08-26T09:43:20;101473.31;;;30.16;100.00
37878;BME280;23715;53.652;8.516;2022-08-26T09:48:29;101476.09;;;29.64;100.00
37878;BME280;23715;53.652;8.516;2022-08-26T09:53:32;101471.31;;;30.29;100.00
37878;BME280;23715;53.652;8.516;2022-08-26T09:58:37;101464.25;;;29.69;100.00
37878;BME280;23715;53.652;8.516;2022-08-26T10:03:38;101471.30;;;30.14;100.00
37878;BME280;23715;53.652;8.516;2022-08-26T10:08:42;101475.97;;;29.59;100.00
37878;BME280;23715;53.652;8.516;2022-08-26T10:13:47;101479.41;;;29.75;100.00
37878;BME280;23715;53.652;8.516;2022-08-26T10:18:54;101478.27;;;29.74;100.00
37878;BME280;23715;53.652;8.516;2022-08-26T10:23:56;101475.77;;;29.87;100.00
37878;BME280;23715;53.652;8.516;2022-08-26T10:29:15;101489.73;;;29.54;100.00
37878;BME280;23715;53.652;8.516;2022-08-26T10:34:18;101491.66;;;28.85;100.00
37878;BME280;23715;53.652;8.516;2022-08-26T10:39:53;101501.56;;;28.11;100.00
37878;BME280;23715;53.652;8.516;2022-08-26T10:44:33;101501.10;;;28.14;100.00
37878;BME280;23715;53.652;8.516;2022-08-26T10:49:35;101490.58;;;29.19;100.00
37878;BME280;23715;53.652;8.516;2022-08-26T10:55:35;101484.92;;;28.81;100.00
37878;BME280;23715;53.652;8.516;2022-08-26T11:05:28;101514.20;;;27.45;100.00
37878;BME280;23715;53.652;8.516;2022-08-26T11:20:47;101513.80;;;28.52;100.00
37878;BME280;23715;53.652;8.516;2022-08-26T11:31:00;101519.22;;;27.73;100.00
37878;BME280;23715;53.652;8.516;2022-08-26T11:36:00;101527.82;;;27.65;100.00
37878;BME280;23715;53.652;8.516;2022-08-26T11:41:16;101519.79;;;27.29;100.00
37878;BME280;23715;53.652;8.516;2022-08-26T11:46:21;101539.80;;;26.67;100.00
37878;BME280;23715;53.652;8.516;2022-08-26T11:51:24;101552.18;;;26.99;100.00
37878;BME280;23715;53.652;8.516;2022-08-26T11:56:30;101521.59;;;27.88;100.00
37878;BME280;23715;53.652;8.516;2022-08-26T12:06:52;101522.13;;;27.41;100.00
37878;BME280;23715;53.652;8.516;2022-08-26T12:12:14;101514.77;;;27.54;100.00
37878;BME280;23715;53.652;8.516;2022-08-26T12:17:18;101506.59;;;27.31;100.00
37878;BME280;23715;53.652;8.516;2022-08-26T12:22:24;101497.43;;;27.83;100.00
37878;BME280;23715;53.652;8.516;2022-08-26T12:27:34;101485.72;;;28.49;100.00
37878;BME280;23715;53.652;8.516;2022-08-26T12:32:40;101483.15;;;28.66;100.00
37878;BME280;23715;53.652;8.516;2022-08-26T12:37:48;101498.66;;;27.41;100.00
37878;BME280;23715;53.652;8.516;2022-08-26T12:42:43;101515.13;;;27.39;100.00
37878;BME280;23715;53.652;8.516;2022-08-26T12:47:45;101490.47;;;28.51;100.00
37878;BME280;23715;53.652;8.516;2022-08-26T12:53:12;101484.09;;;27.90;100.00
37878;BME280;23715;53.652;8.516;2022-08-26T12:58:34;101475.09;;;28.76;100.00
37878;BME280;23715;53.652;8.516;2022-08-26T13:03:41;101483.94;;;27.66;100.00
37878;BME280;23715;53.652;8.516;2022-08-26T13:08:47;101476.25;;;28.89;100.00
37878;BME280;23715;53.652;8.516;2022-08-26T13:13:56;101466.03;;;28.27;100.00
37878;BME280;23715;53.652;8.516;2022-08-26T13:19:04;101459.77;;;28.71;100.00
37878;BME280;23715;53.652;8.516;2022-08-26T13:24:07;101462.83;;;28.84;100.00
37878;BME280;23715;53.652;8.516;2022-08-26T13:29:10;101478.70;;;27.85;100.00
37878;BME280;23715;53.652;8.516;2022-08-26T13:34:14;101469.95;;;28.28;100.00
37878;BME280;23715;53.652;8.516;2022-08-26T13:39:16;101488.06;;;27.48;100.00
37878;BME280;23715;53.652;8.516;2022-08-26T13:44:17;101491.52;;;27.80;100.00
37878;BME280;23715;53.652;8.516;2022-08-26T13:49:18;101481.63;;;28.60;100.00
37878;BME280;23715;53.652;8.516;2022-08-26T13:54:19;101469.05;;;29.12;100.00
37878;BME280;23715;53.652;8.516;2022-08-26T13:59:20;101470.35;;;28.22;100.00
37878;BME280;23715;53.652;8.516;2022-08-26T14:04:20;101467.14;;;29.12;100.00
37878;BME280;23715;53.652;8.516;2022-08-26T14:09:21;101470.90;;;28.85;100.00
37878;BME280;23715;53.652;8.516;2022-08-26T14:14:22;101458.98;;;29.29;100.00
37878;BME280;23715;53.652;8.516;2022-08-26T14:19:23;101463.05;;;28.91;100.00
37878;BME280;23715;53.652;8.516;2022-08-26T14:24:23;101458.07;;;29.64;100.00
37878;BME280;23715;53.652;8.516;2022-08-26T14:29:24;101465.90;;;29.93;100.00
37878;BME280;23715;53.652;8.516;2022-08-26T14:34:24;101470.59;;;29.41;100.00
37878;BME280;23715;53.652;8.516;2022-08-26T14:39:25;101471.45;;;29.67;100.00
37878;BME280;23715;53.652;8.516;2022-08-26T14:44:28;101478.36;;;29.41;100.00
37878;BME280;23715;53.652;8.516;2022-08-26T14:49:29;101477.28;;;28.13;100.00
37878;BME280;23715;53.652;8.516;2022-08-26T14:54:30;101472.86;;;28.33;100.00
37878;BME280;23715;53.652;8.516;2022-08-26T14:59:36;101463.38;;;29.16;100.00
37878;BME280;23715;53.652;8.516;2022-08-26T15:04:37;101458.75;;;29.10;100.00
37878;BME280;23715;53.652;8.516;2022-08-26T15:09:38;101469.86;;;28.65;100.00
37878;BME280;23715;53.652;8.516;2022-08-26T15:14:39;101468.83;;;28.48;100.00
37878;BME280;23715;53.652;8.516;2022-08-26T15:19:39;101481.56;;;28.28;100.00
37878;BME280;23715;53.652;8.516;2022-08-26T15:24:40;101481.31;;;28.38;100.00
37878;BME280;23715;53.652;8.516;2022-08-26T15:29:40;101482.58;;;28.54;100.00
37878;BME280;23715;53.652;8.516;2022-08-26T15:34:41;101489.05;;;28.69;100.00
37878;BME280;23715;53.652;8.516;2022-08-26T15:39:42;101499.14;;;28.33;100.00
37878;BME280;23715;53.652;8.516;2022-08-26T15:44:43;101513.84;;;27.60;100.00
37878;BME280;23715;53.652;8.516;2022-08-26T15:49:44;101526.02;;;27.18;100.00
37878;BME280;23715;53.652;8.516;2022-08-26T15:54:45;101528.61;;;27.13;100.00
37878;BME280;23715;53.652;8.516;2022-08-26T15:59:47;101533.36;;;26.90;100.00
37878;BME280;23715;53.652;8.516;2022-08-26T16:04:48;101530.38;;;26.37;100.00
37878;BME280;23715;53.652;8.516;2022-08-26T16:09:48;101514.66;;;27.33;100.00
37878;BME280;23715;53.652;8.516;2022-08-26T16:14:50;101527.68;;;26.68;100.00
37878;BME280;23715;53.652;8.516;2022-08-26T16:19:52;101523.15;;;26.20;100.00
37878;BME280;23715;53.652;8.516;2022-08-26T16:24:56;101505.47;;;26.88;100.00
37878;BME280;23715;53.652;8.516;2022-08-26T16:29:57;101510.98;;;26.73;100.00
37878;BME280;23715;53.652;8.516;2022-08-26T16:34:58;101513.52;;;27.15;100.00
37878;BME280;23715;53.652;8.516;2022-08-26T16:39:58;101515.00;;;26.61;100.00
37878;BME280;23715;53.652;8.516;2022-08-26T16:44:58;101524.44;;;25.88;100.00
37878;BME280;23715;53.652;8.516;2022-08-26T16:49:59;101523.19;;;26.90;100.00
37878;BME280;23715;53.652;8.516;2022-08-26T16:54:59;101525.20;;;27.01;100.00
37878;BME280;23715;53.652;8.516;2022-08-26T17:00:04;101529.11;;;26.55;100.00
37878;BME280;23715;53.652;8.516;2022-08-26T17:05:04;101546.38;;;26.66;100.00
37878;BME280;23715;53.652;8.516;2022-08-26T17:10:05;101547.23;;;26.83;100.00
37878;BME280;23715;53.652;8.516;2022-08-26T17:15:08;101547.34;;;26.95;100.00
37878;BME280;23715;53.652;8.516;2022-08-26T17:20:12;101543.88;;;27.31;100.00
37878;BME280;23715;53.652;8.516;2022-08-26T17:25:16;101549.48;;;26.93;100.00
37878;BME280;23715;53.652;8.516;2022-08-26T17:30:17;101555.84;;;26.61;100.00
37878;BME280;23715;53.652;8.516;2022-08-26T17:35:18;101561.86;;;26.83;100.00
37878;BME280;23715;53.652;8.516;2022-08-26T17:40:22;101562.63;;;26.81;100.00
37878;BME280;23715;53.652;8.516;2022-08-26T17:45:22;101561.81;;;26.74;100.00
37878;BME280;23715;53.652;8.516;2022-08-26T17:50:23;101564.03;;;25.58;100.00
37878;BME280;23715;53.652;8.516;2022-08-26T17:55:23;101564.03;;;25.58;100.00
37878;BME280;23715;53.652;8.516;2022-08-26T18:00:25;101564.06;;;26.29;100.00
37878;BME280;23715;53.652;8.516;2022-08-26T18:05:25;101569.06;;;26.68;100.00
37878;BME280;23715;53.652;8.516;2022-08-26T18:10:26;101561.38;;;26.55;100.00
37878;BME280;23715;53.652;8.516;2022-08-26T18:15:26;101553.27;;;26.98;100.00
37878;BME280;23715;53.652;8.516;2022-08-26T18:20:27;101534.63;;;26.84;100.00
37878;BME280;23715;53.652;8.516;2022-08-26T18:25:28;101534.63;;;26.78;100.00
37878;BME280;23715;53.652;8.516;2022-08-26T18:30:28;101558.48;;;26.43;100.00
37878;BME280;23715;53.652;8.516;2022-08-26T18:35:28;101561.73;;;26.26;100.00
37878;BME280;23715;53.652;8.516;2022-08-26T18:40:29;101557.80;;;26.25;100.00
37878;BME280;23715;53.652;8.516;2022-08-26T18:45:29;101567.17;;;26.17;100.00
37878;BME280;23715;53.652;8.516;2022-08-26T18:50:30;101586.44;;;25.95;100.00
37878;BME280;23715;53.652;8.516;2022-08-26T18:55:30;101591.36;;;26.15;100.00
37878;BME280;23715;53.652;8.516;2022-08-26T19:00:31;101585.47;;;25.98;100.00
37878;BME280;23715;53.652;8.516;2022-08-26T19:05:31;101597.98;;;26.30;100.00
37878;BME280;23715;53.652;8.516;2022-08-26T19:10:34;101600.04;;;26.19;100.00
37878;BME280;23715;53.652;8.516;2022-08-26T19:15:40;101609.86;;;26.01;100.00
37878;BME280;23715;53.652;8.516;2022-08-26T19:20:42;101603.27;;;26.02;100.00
37878;BME280;23715;53.652;8.516;2022-08-26T19:25:48;101596.41;;;25.96;100.00
37878;BME280;23715;53.652;8.516;2022-08-26T19:30:56;101603.42;;;25.38;100.00
37878;BME280;23715;53.652;8.516;2022-08-26T19:35:56;101599.17;;;25.16;100.00
37878;BME280;23715;53.652;8.516;2022-08-26T19:40:57;101586.27;;;25.49;100.00
37878;BME280;23715;53.652;8.516;2022-08-26T19:45:57;101580.34;;;25.32;100.00
37878;BME280;23715;53.652;8.516;2022-08-26T19:50:58;101579.52;;;25.39;100.00
37878;BME280;23715;53.652;8.516;2022-08-26T19:55:58;101582.14;;;25.23;100.00
37878;BME280;23715;53.652;8.516;2022-08-26T20:00:59;101578.25;;;25.35;100.00
37878;BME280;23715;53.652;8.516;2022-08-26T20:06:01;101571.07;;;24.83;100.00
37878;BME280;23715;53.652;8.516;2022-08-26T20:11:04;101574.97;;;24.71;100.00
37878;BME280;23715;53.652;8.516;2022-08-26T20:16:05;101575.41;;;24.74;100.00
37878;BME280;23715;53.652;8.516;2022-08-26T20:21:12;101583.45;;;24.83;100.00
37878;BME280;23715;53.652;8.516;2022-08-26T20:26:25;101573.72;;;24.87;100.00
37878;BME280;23715;53.652;8.516;2022-08-26T20:31:26;101587.61;;;24.10;100.00
37878;BME280;23715;53.652;8.516;2022-08-26T20:36:27;101587.61;;;24.10;100.00
37878;BME280;23715;53.652;8.516;2022-08-26T20:41:28;101601.27;;;24.39;100.00
37878;BME280;23715;53.652;8.516;2022-08-26T20:46:29;101600.89;;;24.72;100.00
37878;BME280;23715;53.652;8.516;2022-08-26T20:51:30;101602.06;;;24.81;100.00
37878;BME280;23715;53.652;8.516;2022-08-26T20:56:30;101594.12;;;25.26;100.00
37878;BME280;23715;53.652;8.516;2022-08-26T21:01:33;101595.83;;;24.83;100.00
37878;BME280;23715;53.652;8.516;2022-08-26T21:06:34;101595.65;;;24.98;100.00
37878;BME280;23715;53.652;8.516;2022-08-26T21:11:37;101592.52;;;25.34;100.00
37878;BME280;23715;53.652;8.516;2022-08-26T21:16:38;101594.07;;;25.19;100.00
37878;BME280;23715;53.652;8.516;2022-08-26T21:21:39;101587.84;;;25.14;100.00
37878;BME280;23715;53.652;8.516;2022-08-26T21:26:40;101591.34;;;25.46;100.00
37878;BME280;23715;53.652;8.516;2022-08-26T21:31:41;101606.20;;;24.81;100.00
37878;BME280;23715;53.652;8.516;2022-08-26T21:36:44;101604.92;;;24.77;100.00
37878;BME280;23715;53.652;8.516;2022-08-26T21:41:45;101595.16;;;25.25;100.00
37878;BME280;23715;53.652;8.516;2022-08-26T21:46:46;101599.24;;;24.91;100.00
37878;BME280;23715;53.652;8.516;2022-08-26T21:51:51;101601.70;;;24.60;100.00
37878;BME280;23715;53.652;8.516;2022-08-26T21:56:53;101600.92;;;24.86;100.00
37878;BME280;23715;53.652;8.516;2022-08-26T22:01:54;101604.03;;;25.07;100.00
37878;BME280;23715;53.652;8.516;2022-08-26T22:06:55;101612.53;;;24.74;100.00
37878;BME280;23715;53.652;8.516;2022-08-26T22:11:57;101598.91;;;24.84;100.00
37878;BME280;23715;53.652;8.516;2022-08-26T22:16:58;101604.56;;;25.06;100.00
37878;BME280;23715;53.652;8.516;2022-08-26T22:22:19;101600.86;;;24.59;100.00
37878;BME280;23715;53.652;8.516;2022-08-26T22:27:19;101607.20;;;25.17;100.00
37878;BME280;23715;53.652;8.516;2022-08-26T22:32:20;101607.57;;;24.81;100.00
37878;BME280;23715;53.652;8.516;2022-08-26T22:37:21;101597.73;;;24.82;100.00
37878;BME280;23715;53.652;8.516;2022-08-26T22:42:22;101606.80;;;24.69;100.00
37878;BME280;23715;53.652;8.516;2022-08-26T22:47:21;101607.52;;;24.43;100.00
37878;BME280;23715;53.652;8.516;2022-08-26T22:52:22;101609.92;;;24.84;100.00
37878;BME280;23715;53.652;8.516;2022-08-26T22:57:22;101618.02;;;24.26;100.00
37878;BME280;23715;53.652;8.516;2022-08-26T23:02:22;101614.41;;;24.67;100.00
37878;BME280;23715;53.652;8.516;2022-08-26T23:07:23;101615.52;;;24.80;100.00
37878;BME280;23715;53.652;8.516;2022-08-26T23:12:23;101618.00;;;24.61;100.00
37878;BME280;23715;53.652;8.516;2022-08-26T23:17:25;101618.00;;;24.61;100.00
37878;BME280;23715;53.652;8.516;2022-08-26T23:22:25;101620.13;;;24.42;100.00
37878;BME280;23715;53.652;8.516;2022-08-26T23:27:26;101632.18;;;23.49;100.00
37878;BME280;23715;53.652;8.516;2022-08-26T23:32:27;101616.63;;;24.20;100.00
37878;BME280;23715;53.652;8.516;2022-08-26T23:37:30;101615.41;;;24.35;100.00
37878;BME280;23715;53.652;8.516;2022-08-26T23:42:31;101605.49;;;24.34;100.00
37878;BME280;23715;53.652;8.516;2022-08-26T23:47:33;101600.88;;;24.42;100.00
37878;BME280;23715;53.652;8.516;2022-08-26T23:52:35;101597.21;;;24.04;100.00
37878;BME280;23715;53.652;8.516;2022-08-26T23:57:54;101593.77;;;24.36;100.00
